sensor_id;sensor_type;location;lat;lon;timestamp;P1;durP1;ratioP1;P2;durP2;ratioP2
16300;SDS011;8258;51.020;4.248;2023-09-07T00:01:32;0.00;;;0.00;;
16300;SDS011;8258;51.020;4.248;2023-09-07T00:03:59;0.00;;;0.00;;
16300;SDS011;8258;51.020;4.248;2023-09-07T00:06:29;0.00;;;0.00;;
16300;SDS011;8258;51.020;4.248;2023-09-07T00:08:56;0.10;;;0.00;;
16300;SDS011;8258;51.020;4.248;2023-09-07T00:11:23;2.07;;;0.30;;
16300;SDS011;8258;51.020;4.248;2023-09-07T00:13:50;0.00;;;0.00;;
16300;SDS011;8258;51.020;4.248;2023-09-07T00:16:17;0.03;;;0.03;;
16300;SDS011;8258;51.020;4.248;2023-09-07T00:18:44;0.00;;;0.00;;
16300;SDS011;8258;51.020;4.248;2023-09-07T00:21:11;0.00;;;0.00;;
16300;SDS011;8258;51.020;4.248;2023-09-07T00:23:40;0.00;;;0.00;;
16300;SDS011;8258;51.020;4.248;2023-09-07T00:26:07;0.00;;;0.00;;
16300;SDS011;8258;51.020;4.248;2023-09-07T00:28:35;0.00;;;0.00;;
16300;SDS011;8258;51.020;4.248;2023-09-07T00:31:02;0.00;;;0.00;;
16300;SDS011;8258;51.020;4.248;2023-09-07T00:33:29;0.00;;;0.00;;
16300;SDS011;8258;51.020;4.248;2023-09-07T00:35:57;0.00;;;0.00;;
16300;SDS011;8258;51.020;4.248;2023-09-07T00:38:24;0.00;;;0.00;;
16300;SDS011;8258;51.020;4.248;2023-09-07T00:40:52;0.00;;;0.00;;
16300;SDS011;8258;51.020;4.248;2023-09-07T00:43:19;0.00;;;0.00;;
16300;SDS011;8258;51.020;4.248;2023-09-07T00:45:46;0.00;;;0.00;;
16300;SDS011;8258;51.020;4.248;2023-09-07T00:48:13;0.00;;;0.00;;
16300;SDS011;8258;51.020;4.248;2023-09-07T00:50:42;0.00;;;0.00;;
16300;SDS011;8258;51.020;4.248;2023-09-07T00:53:10;0.00;;;0.00;;
16300;SDS011;8258;51.020;4.248;2023-09-07T00:55:37;0.00;;;0.00;;
16300;SDS011;8258;51.020;4.248;2023-09-07T00:58:05;0.00;;;0.00;;
16300;SDS011;8258;51.020;4.248;2023-09-07T01:00:33;0.00;;;0.00;;
16300;SDS011;8258;51.020;4.248;2023-09-07T01:03:01;0.00;;;0.00;;
16300;SDS011;8258;51.020;4.248;2023-09-07T01:05:30;0.00;;;0.00;;
16300;SDS011;8258;51.020;4.248;2023-09-07T01:08:03;0.00;;;0.00;;
16300;SDS011;8258;51.020;4.248;2023-09-07T01:10:38;0.10;;;0.10;;
16300;SDS011;8258;51.020;4.248;2023-09-07T01:13:06;0.00;;;0.00;;
16300;SDS011;8258;51.020;4.248;2023-09-07T01:15:33;0.63;;;0.63;;
16300;SDS011;8258;51.020;4.248;2023-09-07T01:18:00;0.00;;;0.00;;
16300;SDS011;8258;51.020;4.248;2023-09-07T01:20:29;0.00;;;0.00;;
16300;SDS011;8258;51.020;4.248;2023-09-07T01:22:59;0.00;;;0.00;;
16300;SDS011;8258;51.020;4.248;2023-09-07T01:25:27;0.00;;;0.00;;
16300;SDS011;8258;51.020;4.248;2023-09-07T01:27:54;0.00;;;0.00;;
16300;SDS011;8258;51.020;4.248;2023-09-07T01:30:21;0.00;;;0.00;;
16300;SDS011;8258;51.020;4.248;2023-09-07T01:32:49;0.00;;;0.00;;
16300;SDS011;8258;51.020;4.248;2023-09-07T01:35:16;0.00;;;0.00;;
16300;SDS011;8258;51.020;4.248;2023-09-07T01:37:46;0.00;;;0.00;;
16300;SDS011;8258;51.020;4.248;2023-09-07T01:40:15;0.13;;;0.13;;
16300;SDS011;8258;51.020;4.248;2023-09-07T01:42:42;0.00;;;0.00;;
16300;SDS011;8258;51.020;4.248;2023-09-07T01:45:09;0.00;;;0.00;;
16300;SDS011;8258;51.020;4.248;2023-09-07T01:47:36;0.00;;;0.00;;
16300;SDS011;8258;51.020;4.248;2023-09-07T01:50:03;0.37;;;0.37;;
16300;SDS011;8258;51.020;4.248;2023-09-07T01:52:31;0.00;;;0.00;;
16300;SDS011;8258;51.020;4.248;2023-09-07T01:54:58;0.00;;;0.00;;
16300;SDS011;8258;51.020;4.248;2023-09-07T01:57:26;0.20;;;0.20;;
16300;SDS011;8258;51.020;4.248;2023-09-07T01:59:53;0.00;;;0.00;;
16300;SDS011;8258;51.020;4.248;2023-09-07T02:02:20;0.10;;;0.10;;
16300;SDS011;8258;51.020;4.248;2023-09-07T02:04:47;0.00;;;0.00;;
16300;SDS011;8258;51.020;4.248;2023-09-07T02:07:13;0.00;;;0.00;;
16300;SDS011;8258;51.020;4.248;2023-09-07T02:14:46;0.00;;;0.00;;
16300;SDS011;8258;51.020;4.248;2023-09-07T02:17:13;0.00;;;0.00;;
16300;SDS011;8258;51.020;4.248;2023-09-07T02:19:43;0.00;;;0.00;;
16300;SDS011;8258;51.020;4.248;2023-09-07T02:22:10;0.00;;;0.00;;
16300;SDS011;8258;51.020;4.248;2023-09-07T02:24:37;0.00;;;0.00;;
16300;SDS011;8258;51.020;4.248;2023-09-07T02:27:03;0.00;;;0.00;;
16300;SDS011;8258;51.020;4.248;2023-09-07T02:29:30;0.00;;;0.00;;
16300;SDS011;8258;51.020;4.248;2023-09-07T02:31:59;0.00;;;0.00;;
16300;SDS011;8258;51.020;4.248;2023-09-07T02:34:25;0.00;;;0.00;;
16300;SDS011;8258;51.020;4.248;2023-09-07T02:36:52;0.00;;;0.00;;
16300;SDS011;8258;51.020;4.248;2023-09-07T02:39:19;0.00;;;0.00;;
16300;SDS011;8258;51.020;4.248;2023-09-07T02:41:46;0.00;;;0.00;;
16300;SDS011;8258;51.020;4.248;2023-09-07T02:44:13;0.00;;;0.00;;
16300;SDS011;8258;51.020;4.248;2023-09-07T02:46:40;0.20;;;0.20;;
16300;SDS011;8258;51.020;4.248;2023-09-07T02:49:09;0.00;;;0.00;;
16300;SDS011;8258;51.020;4.248;2023-09-07T02:51:36;0.00;;;0.00;;
16300;SDS011;8258;51.020;4.248;2023-09-07T02:54:03;0.00;;;0.00;;
16300;SDS011;8258;51.020;4.248;2023-09-07T02:56:31;0.00;;;0.00;;
16300;SDS011;8258;51.020;4.248;2023-09-07T02:58:58;1.30;;;0.77;;
16300;SDS011;8258;51.020;4.248;2023-09-07T03:01:25;0.00;;;0.00;;
16300;SDS011;8258;51.020;4.248;2023-09-07T03:03:52;0.37;;;0.37;;
16300;SDS011;8258;51.020;4.248;2023-09-07T03:06:20;0.00;;;0.00;;
16300;SDS011;8258;51.020;4.248;2023-09-07T03:08:47;0.00;;;0.00;;
16300;SDS011;8258;51.020;4.248;2023-09-07T03:11:14;0.00;;;0.00;;
16300;SDS011;8258;51.020;4.248;2023-09-07T03:13:41;0.00;;;0.00;;
16300;SDS011;8258;51.020;4.248;2023-09-07T03:16:08;0.00;;;0.00;;
16300;SDS011;8258;51.020;4.248;2023-09-07T03:18:35;0.00;;;0.00;;
16300;SDS011;8258;51.020;4.248;2023-09-07T03:21:02;0.00;;;0.00;;
16300;SDS011;8258;51.020;4.248;2023-09-07T03:23:31;0.07;;;0.07;;
16300;SDS011;8258;51.020;4.248;2023-09-07T03:25:59;0.00;;;0.00;;
16300;SDS011;8258;51.020;4.248;2023-09-07T03:28:26;0.00;;;0.00;;
16300;SDS011;8258;51.020;4.248;2023-09-07T03:30:53;0.00;;;0.00;;
16300;SDS011;8258;51.020;4.248;2023-09-07T03:33:20;0.00;;;0.00;;
16300;SDS011;8258;51.020;4.248;2023-09-07T03:35:47;0.00;;;0.00;;
16300;SDS011;8258;51.020;4.248;2023-09-07T03:38:16;0.00;;;0.00;;
16300;SDS011;8258;51.020;4.248;2023-09-07T03:40:45;0.00;;;0.00;;
16300;SDS011;8258;51.020;4.248;2023-09-07T03:43:12;0.37;;;0.37;;
16300;SDS011;8258;51.020;4.248;2023-09-07T03:45:38;0.27;;;0.27;;
16300;SDS011;8258;51.020;4.248;2023-09-07T03:48:05;0.03;;;0.03;;
16300;SDS011;8258;51.020;4.248;2023-09-07T03:50:34;0.00;;;0.00;;
16300;SDS011;8258;51.020;4.248;2023-09-07T03:53:02;0.00;;;0.00;;
16300;SDS011;8258;51.020;4.248;2023-09-07T03:55:29;0.00;;;0.00;;
16300;SDS011;8258;51.020;4.248;2023-09-07T03:57:57;0.20;;;0.13;;
16300;SDS011;8258;51.020;4.248;2023-09-07T04:00:25;0.00;;;0.00;;
16300;SDS011;8258;51.020;4.248;2023-09-07T04:02:52;0.00;;;0.00;;
16300;SDS011;8258;51.020;4.248;2023-09-07T04:05:21;0.57;;;0.57;;
16300;SDS011;8258;51.020;4.248;2023-09-07T04:07:50;0.00;;;0.00;;
16300;SDS011;8258;51.020;4.248;2023-09-07T04:10:17;0.00;;;0.00;;
16300;SDS011;8258;51.020;4.248;2023-09-07T04:12:45;0.00;;;0.00;;
16300;SDS011;8258;51.020;4.248;2023-09-07T04:15:13;0.00;;;0.00;;
16300;SDS011;8258;51.020;4.248;2023-09-07T04:17:40;0.00;;;0.00;;
16300;SDS011;8258;51.020;4.248;2023-09-07T04:20:07;0.00;;;0.00;;
16300;SDS011;8258;51.020;4.248;2023-09-07T04:22:36;0.13;;;0.13;;
16300;SDS011;8258;51.020;4.248;2023-09-07T04:25:05;0.00;;;0.00;;
16300;SDS011;8258;51.020;4.248;2023-09-07T04:27:32;0.00;;;0.00;;
16300;SDS011;8258;51.020;4.248;2023-09-07T04:29:59;0.00;;;0.00;;
16300;SDS011;8258;51.020;4.248;2023-09-07T04:32:27;0.00;;;0.00;;
16300;SDS011;8258;51.020;4.248;2023-09-07T04:34:55;0.00;;;0.00;;
16300;SDS011;8258;51.020;4.248;2023-09-07T04:37:24;0.00;;;0.00;;
16300;SDS011;8258;51.020;4.248;2023-09-07T04:39:51;0.00;;;0.00;;
16300;SDS011;8258;51.020;4.248;2023-09-07T04:42:19;0.00;;;0.00;;
16300;SDS011;8258;51.020;4.248;2023-09-07T04:44:47;0.00;;;0.00;;
16300;SDS011;8258;51.020;4.248;2023-09-07T04:47:14;0.00;;;0.00;;
16300;SDS011;8258;51.020;4.248;2023-09-07T04:49:47;0.00;;;0.00;;
16300;SDS011;8258;51.020;4.248;2023-09-07T04:52:15;0.00;;;0.00;;
16300;SDS011;8258;51.020;4.248;2023-09-07T04:54:42;0.00;;;0.00;;
16300;SDS011;8258;51.020;4.248;2023-09-07T04:57:09;0.00;;;0.00;;
16300;SDS011;8258;51.020;4.248;2023-09-07T04:59:36;0.00;;;0.00;;
16300;SDS011;8258;51.020;4.248;2023-09-07T05:02:03;0.00;;;0.00;;
16300;SDS011;8258;51.020;4.248;2023-09-07T05:04:30;0.00;;;0.00;;
16300;SDS011;8258;51.020;4.248;2023-09-07T05:06:58;0.00;;;0.00;;
16300;SDS011;8258;51.020;4.248;2023-09-07T05:09:25;0.00;;;0.00;;
16300;SDS011;8258;51.020;4.248;2023-09-07T05:11:54;0.30;;;0.30;;
16300;SDS011;8258;51.020;4.248;2023-09-07T05:14:21;0.00;;;0.00;;
16300;SDS011;8258;51.020;4.248;2023-09-07T05:16:49;0.00;;;0.00;;
16300;SDS011;8258;51.020;4.248;2023-09-07T05:19:16;0.00;;;0.00;;
16300;SDS011;8258;51.020;4.248;2023-09-07T05:21:43;0.00;;;0.00;;
16300;SDS011;8258;51.020;4.248;2023-09-07T05:24:12;0.00;;;0.00;;
16300;SDS011;8258;51.020;4.248;2023-09-07T05:26:41;0.00;;;0.00;;
16300;SDS011;8258;51.020;4.248;2023-09-07T05:29:08;0.00;;;0.00;;
16300;SDS011;8258;51.020;4.248;2023-09-07T05:31:35;0.00;;;0.00;;
16300;SDS011;8258;51.020;4.248;2023-09-07T05:34:02;0.00;;;0.00;;
16300;SDS011;8258;51.020;4.248;2023-09-07T05:36:29;0.00;;;0.00;;
16300;SDS011;8258;51.020;4.248;2023-09-07T05:38:57;0.00;;;0.00;;
16300;SDS011;8258;51.020;4.248;2023-09-07T05:41:25;0.00;;;0.00;;
16300;SDS011;8258;51.020;4.248;2023-09-07T05:43:52;0.00;;;0.00;;
16300;SDS011;8258;51.020;4.248;2023-09-07T05:46:19;0.00;;;0.00;;
16300;SDS011;8258;51.020;4.248;2023-09-07T05:48:46;0.00;;;0.00;;
16300;SDS011;8258;51.020;4.248;2023-09-07T05:51:13;0.00;;;0.00;;
16300;SDS011;8258;51.020;4.248;2023-09-07T05:53:40;0.00;;;0.00;;
16300;SDS011;8258;51.020;4.248;2023-09-07T05:56:07;0.00;;;0.00;;
16300;SDS011;8258;51.020;4.248;2023-09-07T05:58:35;0.00;;;0.00;;
16300;SDS011;8258;51.020;4.248;2023-09-07T06:01:02;0.00;;;0.00;;
16300;SDS011;8258;51.020;4.248;2023-09-07T06:03:30;0.73;;;0.47;;
16300;SDS011;8258;51.020;4.248;2023-09-07T06:05:58;0.83;;;0.83;;
16300;SDS011;8258;51.020;4.248;2023-09-07T06:08:25;0.10;;;0.10;;
16300;SDS011;8258;51.020;4.248;2023-09-07T06:10:53;0.13;;;0.13;;
16300;SDS011;8258;51.020;4.248;2023-09-07T06:13:19;0.10;;;0.10;;
16300;SDS011;8258;51.020;4.248;2023-09-07T06:15:48;0.00;;;0.00;;
16300;SDS011;8258;51.020;4.248;2023-09-07T06:18:15;0.00;;;0.00;;
16300;SDS011;8258;51.020;4.248;2023-09-07T06:20:42;0.20;;;0.20;;
16300;SDS011;8258;51.020;4.248;2023-09-07T06:23:12;0.00;;;0.00;;
16300;SDS011;8258;51.020;4.248;2023-09-07T06:25:39;0.00;;;0.00;;
16300;SDS011;8258;51.020;4.248;2023-09-07T06:28:06;0.33;;;0.33;;
16300;SDS011;8258;51.020;4.248;2023-09-07T06:30:33;0.60;;;0.60;;
16300;SDS011;8258;51.020;4.248;2023-09-07T06:33:02;0.00;;;0.00;;
16300;SDS011;8258;51.020;4.248;2023-09-07T06:35:29;1.47;;;1.30;;
16300;SDS011;8258;51.020;4.248;2023-09-07T06:37:56;0.70;;;0.70;;
16300;SDS011;8258;51.020;4.248;2023-09-07T06:40:23;0.37;;;0.37;;
16300;SDS011;8258;51.020;4.248;2023-09-07T06:42:51;0.00;;;0.00;;
16300;SDS011;8258;51.020;4.248;2023-09-07T06:45:18;0.60;;;0.27;;
16300;SDS011;8258;51.020;4.248;2023-09-07T06:47:48;2.83;;;2.73;;
16300;SDS011;8258;51.020;4.248;2023-09-07T06:50:17;0.00;;;0.00;;
16300;SDS011;8258;51.020;4.248;2023-09-07T06:52:44;0.00;;;0.00;;
16300;SDS011;8258;51.020;4.248;2023-09-07T06:55:11;0.20;;;0.20;;
16300;SDS011;8258;51.020;4.248;2023-09-07T06:57:38;0.00;;;0.00;;
16300;SDS011;8258;51.020;4.248;2023-09-07T07:00:06;0.00;;;0.00;;
16300;SDS011;8258;51.020;4.248;2023-09-07T07:02:34;0.00;;;0.00;;
16300;SDS011;8258;51.020;4.248;2023-09-07T07:05:01;0.33;;;0.33;;
16300;SDS011;8258;51.020;4.248;2023-09-07T07:07:30;0.10;;;0.10;;
16300;SDS011;8258;51.020;4.248;2023-09-07T07:09:57;0.20;;;0.20;;
16300;SDS011;8258;51.020;4.248;2023-09-07T07:12:24;0.10;;;0.10;;
16300;SDS011;8258;51.020;4.248;2023-09-07T07:14:51;0.17;;;0.17;;
16300;SDS011;8258;51.020;4.248;2023-09-07T07:17:18;0.00;;;0.00;;
16300;SDS011;8258;51.020;4.248;2023-09-07T07:19:46;0.30;;;0.30;;
16300;SDS011;8258;51.020;4.248;2023-09-07T07:22:13;0.73;;;0.73;;
16300;SDS011;8258;51.020;4.248;2023-09-07T07:24:42;0.07;;;0.07;;
16300;SDS011;8258;51.020;4.248;2023-09-07T07:27:09;0.20;;;0.20;;
16300;SDS011;8258;51.020;4.248;2023-09-07T07:29:37;0.10;;;0.10;;
16300;SDS011;8258;51.020;4.248;2023-09-07T07:32:04;0.10;;;0.10;;
16300;SDS011;8258;51.020;4.248;2023-09-07T07:34:31;0.77;;;0.77;;
16300;SDS011;8258;51.020;4.248;2023-09-07T07:36:58;0.87;;;0.87;;
16300;SDS011;8258;51.020;4.248;2023-09-07T07:39:25;0.20;;;0.20;;
16300;SDS011;8258;51.020;4.248;2023-09-07T07:41:53;0.10;;;0.10;;
16300;SDS011;8258;51.020;4.248;2023-09-07T07:44:20;1.43;;;1.43;;
16300;SDS011;8258;51.020;4.248;2023-09-07T07:46:47;0.30;;;0.30;;
16300;SDS011;8258;51.020;4.248;2023-09-07T07:49:14;0.30;;;0.30;;
16300;SDS011;8258;51.020;4.248;2023-09-07T07:51:41;0.10;;;0.10;;
16300;SDS011;8258;51.020;4.248;2023-09-07T07:54:08;0.40;;;0.40;;
16300;SDS011;8258;51.020;4.248;2023-09-07T07:56:35;0.30;;;0.27;;
16300;SDS011;8258;51.020;4.248;2023-09-07T07:59:03;1.57;;;1.47;;
16300;SDS011;8258;51.020;4.248;2023-09-07T08:01:30;0.13;;;0.13;;
16300;SDS011;8258;51.020;4.248;2023-09-07T08:03:57;0.23;;;0.23;;
16300;SDS011;8258;51.020;4.248;2023-09-07T08:06:24;0.30;;;0.30;;
16300;SDS011;8258;51.020;4.248;2023-09-07T08:08:51;0.20;;;0.20;;
16300;SDS011;8258;51.020;4.248;2023-09-07T08:11:18;0.30;;;0.30;;
16300;SDS011;8258;51.020;4.248;2023-09-07T08:13:46;0.10;;;0.10;;
16300;SDS011;8258;51.020;4.248;2023-09-07T08:16:14;1.03;;;1.03;;
16300;SDS011;8258;51.020;4.248;2023-09-07T08:18:42;0.10;;;0.10;;
16300;SDS011;8258;51.020;4.248;2023-09-07T08:21:09;0.10;;;0.10;;
16300;SDS011;8258;51.020;4.248;2023-09-07T08:23:37;0.20;;;0.20;;
16300;SDS011;8258;51.020;4.248;2023-09-07T08:26:04;0.20;;;0.20;;
16300;SDS011;8258;51.020;4.248;2023-09-07T08:28:31;1.57;;;1.47;;
16300;SDS011;8258;51.020;4.248;2023-09-07T08:30:58;0.30;;;0.30;;
16300;SDS011;8258;51.020;4.248;2023-09-07T08:33:28;0.20;;;0.20;;
16300;SDS011;8258;51.020;4.248;2023-09-07T08:35:55;1.43;;;1.33;;
16300;SDS011;8258;51.020;4.248;2023-09-07T08:38:25;0.50;;;0.50;;
16300;SDS011;8258;51.020;4.248;2023-09-07T08:40:53;0.20;;;0.20;;
16300;SDS011;8258;51.020;4.248;2023-09-07T08:43:20;0.40;;;0.40;;
16300;SDS011;8258;51.020;4.248;2023-09-07T08:45:50;0.40;;;0.40;;
16300;SDS011;8258;51.020;4.248;2023-09-07T08:48:24;0.30;;;0.30;;
16300;SDS011;8258;51.020;4.248;2023-09-07T08:50:55;1.30;;;0.73;;
16300;SDS011;8258;51.020;4.248;2023-09-07T08:53:23;0.20;;;0.20;;
16300;SDS011;8258;51.020;4.248;2023-09-07T08:55:51;0.20;;;0.20;;
16300;SDS011;8258;51.020;4.248;2023-09-07T08:58:18;1.03;;;0.87;;
16300;SDS011;8258;51.020;4.248;2023-09-07T09:00:45;0.30;;;0.30;;
16300;SDS011;8258;51.020;4.248;2023-09-07T09:03:14;0.47;;;0.47;;
16300;SDS011;8258;51.020;4.248;2023-09-07T09:05:41;0.27;;;0.27;;
16300;SDS011;8258;51.020;4.248;2023-09-07T09:08:12;1.57;;;1.53;;
16300;SDS011;8258;51.020;4.248;2023-09-07T09:10:39;0.57;;;0.57;;
16300;SDS011;8258;51.020;4.248;2023-09-07T09:13:06;0.43;;;0.43;;
16300;SDS011;8258;51.020;4.248;2023-09-07T09:15:34;0.30;;;0.30;;
16300;SDS011;8258;51.020;4.248;2023-09-07T09:18:08;0.30;;;0.30;;
16300;SDS011;8258;51.020;4.248;2023-09-07T09:20:37;0.50;;;0.50;;
16300;SDS011;8258;51.020;4.248;2023-09-07T09:23:05;0.40;;;0.40;;
16300;SDS011;8258;51.020;4.248;2023-09-07T09:25:33;0.63;;;0.60;;
16300;SDS011;8258;51.020;4.248;2023-09-07T09:28:00;0.40;;;0.40;;
16300;SDS011;8258;51.020;4.248;2023-09-07T09:30:28;0.40;;;0.40;;
16300;SDS011;8258;51.020;4.248;2023-09-07T09:32:55;0.70;;;0.50;;
16300;SDS011;8258;51.020;4.248;2023-09-07T09:35:22;1.33;;;0.70;;
16300;SDS011;8258;51.020;4.248;2023-09-07T09:37:49;0.30;;;0.30;;
16300;SDS011;8258;51.020;4.248;2023-09-07T09:40:17;0.43;;;0.43;;
16300;SDS011;8258;51.020;4.248;2023-09-07T09:42:46;0.53;;;0.53;;
16300;SDS011;8258;51.020;4.248;2023-09-07T09:45:14;0.77;;;0.77;;
16300;SDS011;8258;51.020;4.248;2023-09-07T09:47:41;0.70;;;0.70;;
16300;SDS011;8258;51.020;4.248;2023-09-07T09:50:09;0.43;;;0.43;;
16300;SDS011;8258;51.020;4.248;2023-09-07T09:52:37;0.23;;;0.23;;
16300;SDS011;8258;51.020;4.248;2023-09-07T09:55:05;0.40;;;0.40;;
16300;SDS011;8258;51.020;4.248;2023-09-07T09:57:38;0.67;;;0.67;;
16300;SDS011;8258;51.020;4.248;2023-09-07T10:00:08;0.60;;;0.60;;
16300;SDS011;8258;51.020;4.248;2023-09-07T10:02:46;0.40;;;0.40;;
16300;SDS011;8258;51.020;4.248;2023-09-07T10:05:16;0.70;;;0.70;;
16300;SDS011;8258;51.020;4.248;2023-09-07T10:07:45;0.67;;;0.67;;
16300;SDS011;8258;51.020;4.248;2023-09-07T10:10:14;0.80;;;0.80;;
16300;SDS011;8258;51.020;4.248;2023-09-07T10:12:42;0.50;;;0.50;;
16300;SDS011;8258;51.020;4.248;2023-09-07T10:18:03;0.40;;;0.40;;
16300;SDS011;8258;51.020;4.248;2023-09-07T10:20:46;0.43;;;0.43;;
16300;SDS011;8258;51.020;4.248;2023-09-07T10:23:15;0.60;;;0.60;;
16300;SDS011;8258;51.020;4.248;2023-09-07T10:25:42;1.17;;;1.17;;
16300;SDS011;8258;51.020;4.248;2023-09-07T10:28:20;0.60;;;0.60;;
16300;SDS011;8258;51.020;4.248;2023-09-07T10:30:59;0.70;;;0.70;;
16300;SDS011;8258;51.020;4.248;2023-09-07T10:33:28;0.93;;;0.93;;
16300;SDS011;8258;51.020;4.248;2023-09-07T10:35:55;0.40;;;0.40;;
16300;SDS011;8258;51.020;4.248;2023-09-07T10:38:23;0.60;;;0.60;;
16300;SDS011;8258;51.020;4.248;2023-09-07T10:40:54;0.53;;;0.50;;
16300;SDS011;8258;51.020;4.248;2023-09-07T10:43:25;1.00;;;0.90;;
16300;SDS011;8258;51.020;4.248;2023-09-07T10:45:53;0.87;;;0.87;;
16300;SDS011;8258;51.020;4.248;2023-09-07T10:48:22;0.53;;;0.53;;
16300;SDS011;8258;51.020;4.248;2023-09-07T10:50:50;0.63;;;0.63;;
16300;SDS011;8258;51.020;4.248;2023-09-07T10:53:24;0.40;;;0.40;;
16300;SDS011;8258;51.020;4.248;2023-09-07T10:55:52;0.70;;;0.70;;
16300;SDS011;8258;51.020;4.248;2023-09-07T10:58:25;0.90;;;0.90;;
16300;SDS011;8258;51.020;4.248;2023-09-07T11:00:53;0.60;;;0.60;;
16300;SDS011;8258;51.020;4.248;2023-09-07T11:03:21;1.37;;;1.37;;
16300;SDS011;8258;51.020;4.248;2023-09-07T11:05:50;2.37;;;1.40;;
16300;SDS011;8258;51.020;4.248;2023-09-07T11:08:18;0.60;;;0.60;;
16300;SDS011;8258;51.020;4.248;2023-09-07T11:10:46;1.10;;;1.10;;
16300;SDS011;8258;51.020;4.248;2023-09-07T11:13:12;0.90;;;0.90;;
16300;SDS011;8258;51.020;4.248;2023-09-07T11:15:42;0.80;;;0.80;;
16300;SDS011;8258;51.020;4.248;2023-09-07T11:18:10;0.90;;;0.90;;
16300;SDS011;8258;51.020;4.248;2023-09-07T11:20:38;0.70;;;0.70;;
16300;SDS011;8258;51.020;4.248;2023-09-07T11:23:05;1.00;;;1.00;;
16300;SDS011;8258;51.020;4.248;2023-09-07T11:25:36;1.27;;;1.27;;
16300;SDS011;8258;51.020;4.248;2023-09-07T11:28:04;1.00;;;1.00;;
16300;SDS011;8258;51.020;4.248;2023-09-07T11:30:31;0.70;;;0.70;;
16300;SDS011;8258;51.020;4.248;2023-09-07T11:33:02;0.60;;;0.60;;
16300;SDS011;8258;51.020;4.248;2023-09-07T11:35:30;1.23;;;1.23;;
16300;SDS011;8258;51.020;4.248;2023-09-07T11:38:00;0.50;;;0.50;;
16300;SDS011;8258;51.020;4.248;2023-09-07T11:40:33;0.60;;;0.60;;
16300;SDS011;8258;51.020;4.248;2023-09-07T11:43:00;0.60;;;0.60;;
16300;SDS011;8258;51.020;4.248;2023-09-07T11:45:27;1.17;;;1.17;;
16300;SDS011;8258;51.020;4.248;2023-09-07T11:47:54;0.93;;;0.93;;
16300;SDS011;8258;51.020;4.248;2023-09-07T11:50:22;0.70;;;0.70;;
16300;SDS011;8258;51.020;4.248;2023-09-07T11:52:50;0.50;;;0.50;;
16300;SDS011;8258;51.020;4.248;2023-09-07T11:55:19;0.67;;;0.67;;
16300;SDS011;8258;51.020;4.248;2023-09-07T11:57:46;0.60;;;0.60;;
16300;SDS011;8258;51.020;4.248;2023-09-07T12:00:13;1.07;;;0.90;;
16300;SDS011;8258;51.020;4.248;2023-09-07T12:02:41;0.57;;;0.57;;
16300;SDS011;8258;51.020;4.248;2023-09-07T12:05:08;0.87;;;0.87;;
16300;SDS011;8258;51.020;4.248;2023-09-07T12:07:39;0.70;;;0.70;;
16300;SDS011;8258;51.020;4.248;2023-09-07T12:10:08;1.10;;;1.00;;
16300;SDS011;8258;51.020;4.248;2023-09-07T12:12:38;0.60;;;0.60;;
16300;SDS011;8258;51.020;4.248;2023-09-07T12:15:08;1.63;;;1.53;;
16300;SDS011;8258;51.020;4.248;2023-09-07T12:17:36;0.50;;;0.50;;
16300;SDS011;8258;51.020;4.248;2023-09-07T12:20:04;0.60;;;0.60;;
16300;SDS011;8258;51.020;4.248;2023-09-07T12:22:35;0.87;;;0.87;;
16300;SDS011;8258;51.020;4.248;2023-09-07T12:25:02;2.30;;;2.20;;
16300;SDS011;8258;51.020;4.248;2023-09-07T12:27:32;0.90;;;0.90;;
16300;SDS011;8258;51.020;4.248;2023-09-07T12:30:01;0.77;;;0.77;;
16300;SDS011;8258;51.020;4.248;2023-09-07T12:32:31;0.90;;;0.90;;
16300;SDS011;8258;51.020;4.248;2023-09-07T12:34:58;0.77;;;0.77;;
16300;SDS011;8258;51.020;4.248;2023-09-07T12:37:25;0.80;;;0.80;;
16300;SDS011;8258;51.020;4.248;2023-09-07T12:39:52;0.80;;;0.80;;
16300;SDS011;8258;51.020;4.248;2023-09-07T12:42:19;0.90;;;0.90;;
16300;SDS011;8258;51.020;4.248;2023-09-07T12:44:47;0.90;;;0.90;;
16300;SDS011;8258;51.020;4.248;2023-09-07T12:47:16;1.10;;;1.10;;
16300;SDS011;8258;51.020;4.248;2023-09-07T12:49:43;0.70;;;0.70;;
16300;SDS011;8258;51.020;4.248;2023-09-07T12:52:10;0.90;;;0.90;;
16300;SDS011;8258;51.020;4.248;2023-09-07T12:54:37;0.80;;;0.80;;
16300;SDS011;8258;51.020;4.248;2023-09-07T12:57:04;1.10;;;1.10;;
16300;SDS011;8258;51.020;4.248;2023-09-07T12:59:32;1.67;;;1.57;;
16300;SDS011;8258;51.020;4.248;2023-09-07T13:01:59;1.43;;;1.43;;
16300;SDS011;8258;51.020;4.248;2023-09-07T13:04:27;1.50;;;1.50;;
16300;SDS011;8258;51.020;4.248;2023-09-07T13:06:54;1.00;;;1.00;;
16300;SDS011;8258;51.020;4.248;2023-09-07T13:09:21;1.30;;;1.20;;
16300;SDS011;8258;51.020;4.248;2023-09-07T13:11:48;0.73;;;0.73;;
16300;SDS011;8258;51.020;4.248;2023-09-07T13:14:15;0.73;;;0.73;;
16300;SDS011;8258;51.020;4.248;2023-09-07T13:16:42;0.90;;;0.90;;
16300;SDS011;8258;51.020;4.248;2023-09-07T13:19:10;1.48;;;1.48;;
16300;SDS011;8258;51.020;4.248;2023-09-07T13:21:38;0.90;;;0.90;;
16300;SDS011;8258;51.020;4.248;2023-09-07T13:24:05;1.02;;;1.02;;
16300;SDS011;8258;51.020;4.248;2023-09-07T13:26:32;1.17;;;1.17;;
16300;SDS011;8258;51.020;4.248;2023-09-07T13:28:59;0.95;;;0.95;;
16300;SDS011;8258;51.020;4.248;2023-09-07T13:31:26;1.02;;;1.02;;
16300;SDS011;8258;51.020;4.248;2023-09-07T13:33:53;0.88;;;0.88;;
16300;SDS011;8258;51.020;4.248;2023-09-07T13:36:20;1.33;;;1.33;;
16300;SDS011;8258;51.020;4.248;2023-09-07T13:38:48;1.15;;;1.15;;
16300;SDS011;8258;51.020;4.248;2023-09-07T13:41:15;1.10;;;1.10;;
16300;SDS011;8258;51.020;4.248;2023-09-07T13:43:42;1.17;;;1.17;;
16300;SDS011;8258;51.020;4.248;2023-09-07T13:46:09;0.90;;;0.90;;
16300;SDS011;8258;51.020;4.248;2023-09-07T13:48:36;0.70;;;0.70;;
16300;SDS011;8258;51.020;4.248;2023-09-07T13:51:03;1.27;;;1.27;;
16300;SDS011;8258;51.020;4.248;2023-09-07T13:53:31;1.10;;;1.10;;
16300;SDS011;8258;51.020;4.248;2023-09-07T13:55:59;1.00;;;1.00;;
16300;SDS011;8258;51.020;4.248;2023-09-07T13:58:26;0.80;;;0.80;;
16300;SDS011;8258;51.020;4.248;2023-09-07T14:00:53;0.80;;;0.80;;
16300;SDS011;8258;51.020;4.248;2023-09-07T14:03:20;1.75;;;1.65;;
16300;SDS011;8258;51.020;4.248;2023-09-07T14:05:47;1.20;;;1.20;;
16300;SDS011;8258;51.020;4.248;2023-09-07T14:08:14;0.85;;;0.85;;
16300;SDS011;8258;51.020;4.248;2023-09-07T14:10:42;0.93;;;0.93;;
16300;SDS011;8258;51.020;4.248;2023-09-07T14:13:10;1.27;;;1.13;;
16300;SDS011;8258;51.020;4.248;2023-09-07T14:15:37;1.10;;;1.10;;
16300;SDS011;8258;51.020;4.248;2023-09-07T14:18:04;1.00;;;1.00;;
16300;SDS011;8258;51.020;4.248;2023-09-07T14:20:33;0.90;;;0.90;;
16300;SDS011;8258;51.020;4.248;2023-09-07T14:23:00;0.88;;;0.88;;
16300;SDS011;8258;51.020;4.248;2023-09-07T14:25:27;1.27;;;1.27;;
16300;SDS011;8258;51.020;4.248;2023-09-07T14:27:54;1.58;;;1.58;;
16300;SDS011;8258;51.020;4.248;2023-09-07T14:30:22;1.92;;;1.92;;
16300;SDS011;8258;51.020;4.248;2023-09-07T14:32:49;0.82;;;0.82;;
16300;SDS011;8258;51.020;4.248;2023-09-07T14:35:16;0.77;;;0.77;;
16300;SDS011;8258;51.020;4.248;2023-09-07T14:37:43;1.00;;;1.00;;
16300;SDS011;8258;51.020;4.248;2023-09-07T14:40:10;1.30;;;1.20;;
16300;SDS011;8258;51.020;4.248;2023-09-07T14:42:38;0.80;;;0.80;;
16300;SDS011;8258;51.020;4.248;2023-09-07T14:45:06;1.58;;;1.58;;
16300;SDS011;8258;51.020;4.248;2023-09-07T14:47:34;0.80;;;0.80;;
16300;SDS011;8258;51.020;4.248;2023-09-07T14:50:02;1.48;;;1.38;;
16300;SDS011;8258;51.020;4.248;2023-09-07T14:52:29;1.02;;;1.02;;
16300;SDS011;8258;51.020;4.248;2023-09-07T14:54:57;1.00;;;1.00;;
16300;SDS011;8258;51.020;4.248;2023-09-07T14:57:24;1.10;;;1.10;;
16300;SDS011;8258;51.020;4.248;2023-09-07T14:59:51;0.90;;;0.90;;
16300;SDS011;8258;51.020;4.248;2023-09-07T15:02:19;1.00;;;1.00;;
16300;SDS011;8258;51.020;4.248;2023-09-07T15:04:47;1.13;;;1.13;;
16300;SDS011;8258;51.020;4.248;2023-09-07T15:07:14;0.90;;;0.90;;
16300;SDS011;8258;51.020;4.248;2023-09-07T15:09:41;1.25;;;1.25;;
16300;SDS011;8258;51.020;4.248;2023-09-07T15:12:08;1.02;;;1.02;;